Time,TemperatureF,DewpointF,PressureIn,WindDirection,WindDirectionDegrees,WindSpeedMPH,WindSpeedGustMPH,Humidity,HourlyPrecipIn,Conditions,Clouds,dailyrainin,SoftwareType,DateUTC
2013-03-24 00:11:00,27.3,21.0,29.82,WNW,300,4.0,9.0,78,0.00,,,0.00,weatherlink.com 1.10,2013-03-24 04:11:00,
2013-03-24 00:26:00,27.2,21.0,29.82,NW,309,2.0,7.0,78,0.00,,,0.00,weatherlink.com 1.10,2013-03-24 04:26:00,
2013-03-24 00:41:00,27.0,21.0,29.82,WNW,292,3.0,6.0,79,0.00,,,0.00,weatherlink.com 1.10,2013-03-24 04:41:00,
2013-03-24 00:56:00,27.0,21.0,29.82,WNW,288,5.0,8.0,79,0.00,,,0.00,weatherlink.com 1.10,2013-03-24 04:56:00,
2013-03-24 01:11:00,27.0,21.0,29.82,WNW,288,4.0,10.0,79,0.00,,,0.00,weatherlink.com 1.10,2013-03-24 05:11:00,
2013-03-24 01:26:00,27.0,21.0,29.82,West,276,5.0,7.0,79,0.00,,,0.00,weatherlink.com 1.10,2013-03-24 05:26:00,
2013-03-24 01:41:00,27.0,21.0,29.82,NW,310,7.0,7.0,79,0.00,,,0.00,weatherlink.com 1.10,2013-03-24 05:41:00,
2013-03-24 01:56:00,27.0,21.0,29.83,West,278,1.0,9.0,79,0.00,,,0.00,weatherlink.com 1.10,2013-03-24 05:56:00,
2013-03-24 02:11:00,26.9,21.0,29.83,WNW,296,5.0,9.0,79,0.00,,,0.00,weatherlink.com 1.10,2013-03-24 06:11:00,
2013-03-24 02:26:00,26.9,21.0,29.83,North,351,3.0,7.0,79,0.00,,,0.00,weatherlink.com 1.10,2013-03-24 06:26:00,
2013-03-24 02:41:00,26.8,21.0,29.83,NNE,22,2.0,5.0,79,0.00,,,0.00,weatherlink.com 1.10,2013-03-24 06:41:00,
2013-03-24 02:56:00,26.7,21.0,29.82,WNW,301,2.0,5.0,80,0.00,,,0.00,weatherlink.com 1.10,2013-03-24 06:56:00,
2013-03-24 03:11:00,26.6,21.0,29.82,NNE,15,0.0,8.0,80,0.00,,,0.00,weatherlink.com 1.10,2013-03-24 07:11:00,
2013-03-24 03:26:00,26.5,21.0,29.82,WNW,297,1.0,7.0,81,0.00,,,0.00,weatherlink.com 1.10,2013-03-24 07:26:00,
2013-03-24 03:41:00,26.4,21.0,29.82,North,351,0.0,6.0,81,0.00,,,0.00,weatherlink.com 1.10,2013-03-24 07:41:00,
2013-03-24 03:56:00,26.3,22.0,29.81,North,356,1.0,8.0,82,0.00,,,0.00,weatherlink.com 1.10,2013-03-24 07:56:00,
2013-03-24 04:12:00,26.1,21.0,29.81,West,264,3.0,6.0,82,0.00,,,0.00,weatherlink.com 1.10,2013-03-24 08:12:00,
2013-03-24 04:27:00,26.1,21.0,29.81,NW,308,5.0,11.0,82,0.00,,,0.00,weatherlink.com 1.10,2013-03-24 08:27:00,
2013-03-24 04:42:00,26.0,22.0,29.81,NW,309,8.0,10.0,83,0.00,,,0.00,weatherlink.com 1.10,2013-03-24 08:42:00,
2013-03-24 04:57:00,25.5,22.0,29.81,WNW,293,2.0,9.0,85,0.00,,,0.00,weatherlink.com 1.10,2013-03-24 08:57:00,
2013-03-24 05:12:00,25.3,22.0,29.81,WNW,295,4.0,6.0,86,0.00,,,0.00,weatherlink.com 1.10,2013-03-24 09:12:00,
2013-03-24 05:27:00,25.4,22.0,29.82,West,280,2.0,8.0,86,0.00,,,0.00,weatherlink.com 1.10,2013-03-24 09:27:00,
2013-03-24 05:42:00,25.4,22.0,29.81,NW,318,2.0,7.0,86,0.00,,,0.00,weatherlink.com 1.10,2013-03-24 09:42:00,
2013-03-24 05:57:00,25.3,22.0,29.81,WNW,301,0.0,7.0,87,0.00,,,0.00,weatherlink.com 1.10,2013-03-24 09:57:00,
2013-03-24 06:12:00,25.4,22.0,29.82,WNW,296,4.0,7.0,87,0.00,,,0.00,weatherlink.com 1.10,2013-03-24 10:12:00,
2013-03-24 06:27:00,25.3,22.0,29.82,WNW,293,2.0,7.0,87,0.00,,,0.00,weatherlink.com 1.10,2013-03-24 10:27:00,
2013-03-24 06:42:00,25.2,22.0,29.84,WNW,295,1.0,8.0,88,0.00,,,0.00,weatherlink.com 1.10,2013-03-24 10:42:00,
2013-03-24 06:57:00,25.0,23.0,29.84,WNW,283,3.0,5.0,90,0.00,,,0.00,weatherlink.com 1.10,2013-03-24 10:57:00,
2013-03-24 07:12:00,25.0,23.0,29.85,WNW,301,2.0,7.0,90,0.00,,,0.00,weatherlink.com 1.10,2013-03-24 11:12:00,
2013-03-24 07:27:00,25.2,23.0,29.86,WNW,301,5.0,6.0,90,0.00,,,0.00,weatherlink.com 1.10,2013-03-24 11:27:00,
2013-03-24 07:42:00,25.3,23.0,29.88,West,278,4.0,8.0,91,0.00,,,0.00,weatherlink.com 1.10,2013-03-24 11:42:00,
2013-03-24 07:57:00,25.3,23.0,29.88,WNW,295,5.0,5.0,91,0.00,,,0.00,weatherlink.com 1.10,2013-03-24 11:57:00,
2013-03-24 08:12:00,25.5,23.0,29.87,WNW,286,0.0,7.0,90,0.00,,,0.00,weatherlink.com 1.10,2013-03-24 12:12:00,
2013-03-24 08:27:00,25.7,23.0,29.88,West,273,5.0,5.0,90,0.00,,,0.00,weatherlink.com 1.10,2013-03-24 12:27:00,
2013-03-24 08:45:00,25.9,23.0,29.88,NW,307,1.0,4.0,89,0.00,,,0.00,weatherlink.com 1.10,2013-03-24 12:45:00,
2013-03-24 08:57:00,26.2,23.0,29.88,NW,316,4.0,6.0,88,0.00,,,0.00,weatherlink.com 1.10,2013-03-24 12:57:00,
2013-03-24 09:12:00,26.5,23.0,29.88,WNW,302,1.0,7.0,86,0.00,,,0.00,weatherlink.com 1.10,2013-03-24 13:12:00,
2013-03-24 09:27:00,26.8,23.0,29.87,NNW,340,1.0,10.0,85,0.00,,,0.00,weatherlink.com 1.10,2013-03-24 13:27:00,
2013-03-24 09:42:00,27.0,23.0,29.87,WNW,301,6.0,8.0,84,0.00,,,0.00,weatherlink.com 1.10,2013-03-24 13:42:00,
2013-03-24 09:57:00,27.3,23.0,29.88,NNW,333,1.0,10.0,83,0.00,,,0.00,weatherlink.com 1.10,2013-03-24 13:57:00,
2013-03-24 10:12:00,27.2,23.0,29.88,WNW,291,7.0,11.0,83,0.00,,,0.00,weatherlink.com 1.10,2013-03-24 14:12:00,
2013-03-24 10:27:00,27.4,23.0,29.88,WSW,253,2.0,8.0,82,0.00,,,0.00,weatherlink.com 1.10,2013-03-24 14:27:00,
2013-03-24 10:42:00,27.6,23.0,29.87,West,273,4.0,10.0,82,0.00,,,0.00,weatherlink.com 1.10,2013-03-24 14:42:00,
2013-03-24 10:57:00,28.6,23.0,29.87,WNW,290,1.0,8.0,79,0.00,,,0.00,weatherlink.com 1.10,2013-03-24 14:57:00,
2013-03-24 11:12:00,28.7,23.0,29.87,West,278,7.0,14.0,78,0.00,,,0.00,weatherlink.com 1.10,2013-03-24 15:12:00,
2013-03-24 11:27:00,28.7,23.0,29.87,NW,308,4.0,9.0,78,0.00,,,0.00,weatherlink.com 1.10,2013-03-24 15:27:00,
2013-03-24 11:42:00,28.6,22.0,29.87,WNW,297,4.0,10.0,77,0.00,,,0.00,weatherlink.com 1.10,2013-03-24 15:42:00,
2013-03-24 11:57:00,28.7,22.0,29.87,West,280,6.0,10.0,77,0.00,,,0.00,weatherlink.com 1.10,2013-03-24 15:57:00,
2013-03-24 12:12:00,29.1,22.0,29.86,WNW,285,5.0,9.0,76,0.00,,,0.00,weatherlink.com 1.10,2013-03-24 16:12:00,
2013-03-24 12:27:00,29.5,23.0,29.88,NW,321,6.0,12.0,75,0.00,,,0.00,weatherlink.com 1.10,2013-03-24 16:27:00,
2013-03-24 12:42:00,29.6,22.0,29.87,NW,304,5.0,11.0,74,0.00,,,0.00,weatherlink.com 1.10,2013-03-24 16:42:00,
2013-03-24 12:57:00,30.3,23.0,29.86,West,269,3.0,9.0,73,0.00,,,0.00,weatherlink.com 1.10,2013-03-24 16:57:00,
2013-03-24 13:12:00,30.1,22.0,29.87,North,4,3.0,11.0,73,0.00,,,0.00,weatherlink.com 1.10,2013-03-24 17:12:00,
2013-03-24 13:27:00,30.8,23.0,29.86,West,280,5.0,8.0,72,0.00,,,0.00,weatherlink.com 1.10,2013-03-24 17:27:00,
2013-03-24 13:43:00,30.8,23.0,29.86,NW,316,1.0,12.0,72,0.00,,,0.00,weatherlink.com 1.10,2013-03-24 17:43:00,
2013-03-24 13:58:00,31.7,23.0,29.84,WNW,285,4.0,14.0,70,0.00,,,0.00,weatherlink.com 1.10,2013-03-24 17:58:00,
2013-03-24 14:13:00,31.7,23.0,29.84,NW,307,4.0,10.0,70,0.00,,,0.00,weatherlink.com 1.10,2013-03-24 18:13:00,
2013-03-24 14:28:00,30.9,22.0,29.85,WSW,257,2.0,9.0,70,0.00,,,0.00,weatherlink.com 1.10,2013-03-24 18:28:00,
2013-03-24 14:43:00,30.5,22.0,29.85,WNW,295,7.0,11.0,70,0.00,,,0.00,weatherlink.com 1.10,2013-03-24 18:43:00,
2013-03-24 14:58:00,30.7,22.0,29.85,WNW,285,2.0,9.0,71,0.00,,,0.00,weatherlink.com 1.10,2013-03-24 18:58:00,
2013-03-24 15:13:00,30.4,22.0,29.85,North,355,1.0,9.0,71,0.00,,,0.00,weatherlink.com 1.10,2013-03-24 19:13:00,
2013-03-24 15:28:00,30.8,22.0,29.84,WNW,302,1.0,7.0,70,0.00,,,0.00,weatherlink.com 1.10,2013-03-24 19:28:00,
2013-03-24 15:43:00,31.0,22.0,29.83,WNW,295,1.0,6.0,70,0.00,,,0.00,weatherlink.com 1.10,2013-03-24 19:43:00,
2013-03-24 15:58:00,31.0,22.0,29.83,WSW,256,0.0,11.0,69,0.00,,,0.00,weatherlink.com 1.10,2013-03-24 19:58:00,
2013-03-24 16:13:00,31.0,22.0,29.82,WNW,297,8.0,12.0,68,0.00,,,0.00,weatherlink.com 1.10,2013-03-24 20:13:00,
2013-03-24 16:28:00,31.3,22.0,29.82,WNW,283,5.0,6.0,68,0.00,,,0.00,weatherlink.com 1.10,2013-03-24 20:28:00,
2013-03-24 16:43:00,31.7,22.0,29.82,South,179,3.0,5.0,67,0.00,,,0.00,weatherlink.com 1.10,2013-03-24 20:43:00,
2013-03-24 16:58:00,31.5,22.0,29.82,NE,34,0.0,5.0,68,0.00,,,0.00,weatherlink.com 1.10,2013-03-24 20:58:00,
2013-03-24 17:13:00,31.0,22.0,29.82,NNW,343,0.0,7.0,68,0.00,,,0.00,weatherlink.com 1.10,2013-03-24 21:13:00,
2013-03-24 17:28:00,30.7,21.0,29.82,NW,314,2.0,7.0,68,0.00,,,0.00,weatherlink.com 1.10,2013-03-24 21:28:00,
2013-03-24 17:43:00,30.8,22.0,29.82,NE,56,0.0,8.0,69,0.00,,,0.00,weatherlink.com 1.10,2013-03-24 21:43:00,
2013-03-24 17:58:00,29.7,21.0,29.83,NW,314,3.0,6.0,70,0.00,,,0.00,weatherlink.com 1.10,2013-03-24 21:58:00,
2013-03-24 18:13:00,29.2,21.0,29.83,SSE,166,0.0,4.0,71,0.00,,,0.00,weatherlink.com 1.10,2013-03-24 22:13:00,
2013-03-24 18:28:00,29.4,21.0,29.83,North,349,0.0,2.0,71,0.00,,,0.00,weatherlink.com 1.10,2013-03-24 22:28:00,
2013-03-24 18:43:00,29.3,21.0,29.83,NE,45,0.0,4.0,72,0.00,,,0.00,weatherlink.com 1.10,2013-03-24 22:43:00,
2013-03-24 18:58:00,28.9,21.0,29.83,ESE,105,2.0,6.0,72,0.00,,,0.00,weatherlink.com 1.10,2013-03-24 22:58:00,
2013-03-24 19:13:00,28.5,21.0,29.84,WNW,282,0.0,2.0,73,0.00,,,0.00,weatherlink.com 1.10,2013-03-24 23:13:00,
2013-03-24 19:28:00,28.0,21.0,29.84,West,274,2.0,2.0,74,0.00,,,0.00,weatherlink.com 1.10,2013-03-24 23:28:00,
2013-03-24 19:43:00,27.5,21.0,29.84,NW,321,0.0,1.0,75,0.00,,,0.00,weatherlink.com 1.10,2013-03-24 23:43:00,
2013-03-24 19:58:00,26.9,20.0,29.83,NW,321,0.0,0.0,76,0.00,,,0.00,weatherlink.com 1.10,2013-03-24 23:58:00,
2013-03-24 20:13:00,26.5,20.0,29.83,South,186,0.0,1.0,76,0.00,,,0.00,weatherlink.com 1.10,2013-03-25 00:13:00,
2013-03-24 20:28:00,25.9,20.0,29.83,SW,233,0.0,1.0,78,0.00,,,0.00,weatherlink.com 1.10,2013-03-25 00:28:00,
2013-03-24 20:43:00,25.2,20.0,29.83,SW,233,0.0,0.0,79,0.00,,,0.00,weatherlink.com 1.10,2013-03-25 00:43:00,
2013-03-24 20:58:00,24.4,19.0,29.84,SW,233,0.0,0.0,80,0.00,,,0.00,weatherlink.com 1.10,2013-03-25 00:58:00,
2013-03-24 21:13:00,23.6,19.0,29.84,ENE,64,0.0,1.0,81,0.00,,,0.00,weatherlink.com 1.10,2013-03-25 01:13:00,
2013-03-24 21:28:00,23.1,18.0,29.83,ENE,61,0.0,2.0,82,0.00,,,0.00,weatherlink.com 1.10,2013-03-25 01:28:00,
2013-03-24 21:43:00,23.9,20.0,29.83,East,86,0.0,1.0,83,0.00,,,0.00,weatherlink.com 1.10,2013-03-25 01:43:00,
2013-03-24 21:58:00,22.9,18.0,29.82,East,81,1.0,1.0,82,0.00,,,0.00,weatherlink.com 1.10,2013-03-25 01:58:00,
2013-03-24 22:13:00,22.3,18.0,29.83,ENE,69,0.0,2.0,84,0.00,,,0.00,weatherlink.com 1.10,2013-03-25 02:13:00,
2013-03-24 22:28:00,23.4,19.0,29.83,NE,52,0.0,2.0,83,0.00,,,0.00,weatherlink.com 1.10,2013-03-25 02:28:00,
2013-03-24 22:43:00,23.2,19.0,29.82,NE,52,0.0,1.0,84,0.00,,,0.00,weatherlink.com 1.10,2013-03-25 02:43:00,
2013-03-24 22:58:00,23.0,19.0,29.82,NE,53,0.0,0.0,84,0.00,,,0.00,weatherlink.com 1.10,2013-03-25 02:58:00,
2013-03-24 23:13:00,23.4,19.0,29.81,NE,53,0.0,1.0,84,0.00,,,0.00,weatherlink.com 1.10,2013-03-25 03:13:00,
2013-03-24 23:28:00,23.7,20.0,29.81,NE,53,0.0,0.0,84,0.00,,,0.00,weatherlink.com 1.10,2013-03-25 03:28:00,
2013-03-24 23:43:00,24.1,20.0,29.81,SE,135,0.0,1.0,83,0.00,,,0.00,weatherlink.com 1.10,2013-03-25 03:43:00,
2013-03-24 23:58:00,23.6,19.0,29.81,East,82,0.0,1.0,83,0.00,,,0.00,weatherlink.com 1.10,2013-03-25 03:58:00,